sensor_id;sensor_type;location;lat;lon;timestamp;P1;durP1;ratioP1;P2;durP2;ratioP2
75584;SDS011;64162;53.508;10.476;2022-12-16T00:02:23;41.13;;;16.10;;
75584;SDS011;64162;53.508;10.476;2022-12-16T00:04:50;36.10;;;14.07;;
75584;SDS011;64162;53.508;10.476;2022-12-16T00:07:16;31.83;;;13.23;;
75584;SDS011;64162;53.508;10.476;2022-12-16T00:09:43;30.15;;;12.10;;
75584;SDS011;64162;53.508;10.476;2022-12-16T00:12:11;35.13;;;13.60;;
75584;SDS011;64162;53.508;10.476;2022-12-16T00:14:37;30.95;;;12.65;;
75584;SDS011;64162;53.508;10.476;2022-12-16T00:17:04;35.70;;;14.25;;
75584;SDS011;64162;53.508;10.476;2022-12-16T00:19:31;27.25;;;11.02;;
75584;SDS011;64162;53.508;10.476;2022-12-16T00:21:57;24.85;;;10.30;;
75584;SDS011;64162;53.508;10.476;2022-12-16T00:24:24;30.90;;;15.55;;
75584;SDS011;64162;53.508;10.476;2022-12-16T00:26:50;33.08;;;12.85;;
75584;SDS011;64162;53.508;10.476;2022-12-16T00:29:17;37.85;;;13.90;;
75584;SDS011;64162;53.508;10.476;2022-12-16T00:31:44;34.45;;;14.57;;
75584;SDS011;64162;53.508;10.476;2022-12-16T00:34:13;35.80;;;14.00;;
75584;SDS011;64162;53.508;10.476;2022-12-16T00:36:41;31.13;;;13.80;;
75584;SDS011;64162;53.508;10.476;2022-12-16T00:39:09;33.65;;;14.75;;
75584;SDS011;64162;53.508;10.476;2022-12-16T00:41:36;26.80;;;12.73;;
75584;SDS011;64162;53.508;10.476;2022-12-16T00:44:05;34.33;;;13.45;;
75584;SDS011;64162;53.508;10.476;2022-12-16T00:46:32;36.90;;;13.80;;
75584;SDS011;64162;53.508;10.476;2022-12-16T00:48:58;28.20;;;12.05;;
75584;SDS011;64162;53.508;10.476;2022-12-16T00:51:25;36.95;;;13.75;;
75584;SDS011;64162;53.508;10.476;2022-12-16T00:53:52;32.10;;;12.32;;
75584;SDS011;64162;53.508;10.476;2022-12-16T00:56:18;31.88;;;11.48;;
75584;SDS011;64162;53.508;10.476;2022-12-16T00:58:45;27.40;;;11.93;;
75584;SDS011;64162;53.508;10.476;2022-12-16T01:01:12;30.15;;;13.00;;
75584;SDS011;64162;53.508;10.476;2022-12-16T01:03:38;31.92;;;13.38;;
75584;SDS011;64162;53.508;10.476;2022-12-16T01:06:06;30.75;;;12.90;;
75584;SDS011;64162;53.508;10.476;2022-12-16T01:08:36;33.85;;;12.93;;
75584;SDS011;64162;53.508;10.476;2022-12-16T01:11:03;26.75;;;12.13;;
75584;SDS011;64162;53.508;10.476;2022-12-16T01:13:30;33.10;;;12.77;;
75584;SDS011;64162;53.508;10.476;2022-12-16T01:16:00;28.60;;;12.48;;
75584;SDS011;64162;53.508;10.476;2022-12-16T01:18:27;31.95;;;14.48;;
75584;SDS011;64162;53.508;10.476;2022-12-16T01:21:00;32.65;;;13.88;;
75584;SDS011;64162;53.508;10.476;2022-12-16T01:23:27;37.45;;;12.15;;
75584;SDS011;64162;53.508;10.476;2022-12-16T01:25:54;37.55;;;15.80;;
75584;SDS011;64162;53.508;10.476;2022-12-16T01:28:28;29.55;;;10.80;;
75584;SDS011;64162;53.508;10.476;2022-12-16T01:30:56;32.63;;;13.85;;
75584;SDS011;64162;53.508;10.476;2022-12-16T01:33:27;36.58;;;13.73;;
75584;SDS011;64162;53.508;10.476;2022-12-16T01:36:02;34.20;;;12.85;;
75584;SDS011;64162;53.508;10.476;2022-12-16T01:38:31;29.23;;;13.05;;
75584;SDS011;64162;53.508;10.476;2022-12-16T01:40:58;25.17;;;13.02;;
75584;SDS011;64162;53.508;10.476;2022-12-16T01:43:27;30.85;;;11.77;;
75584;SDS011;64162;53.508;10.476;2022-12-16T01:45:57;25.15;;;12.10;;
75584;SDS011;64162;53.508;10.476;2022-12-16T01:48:33;31.02;;;12.63;;
75584;SDS011;64162;53.508;10.476;2022-12-16T01:51:09;30.05;;;12.25;;
75584;SDS011;64162;53.508;10.476;2022-12-16T01:53:41;32.30;;;12.88;;
75584;SDS011;64162;53.508;10.476;2022-12-16T01:56:09;26.08;;;11.52;;
75584;SDS011;64162;53.508;10.476;2022-12-16T01:58:41;31.63;;;13.18;;
75584;SDS011;64162;53.508;10.476;2022-12-16T02:01:09;26.10;;;10.40;;
75584;SDS011;64162;53.508;10.476;2022-12-16T02:03:36;29.08;;;12.35;;
75584;SDS011;64162;53.508;10.476;2022-12-16T02:06:03;30.35;;;12.45;;
75584;SDS011;64162;53.508;10.476;2022-12-16T02:19:33;34.58;;;13.35;;
75584;SDS011;64162;53.508;10.476;2022-12-16T02:35:14;37.28;;;15.65;;
75584;SDS011;64162;53.508;10.476;2022-12-16T02:38:06;30.27;;;12.68;;
75584;SDS011;64162;53.508;10.476;2022-12-16T02:43:47;34.10;;;12.55;;
75584;SDS011;64162;53.508;10.476;2022-12-16T02:46:19;31.20;;;12.45;;
75584;SDS011;64162;53.508;10.476;2022-12-16T02:48:49;29.90;;;13.65;;
75584;SDS011;64162;53.508;10.476;2022-12-16T02:51:16;27.73;;;11.50;;
75584;SDS011;64162;53.508;10.476;2022-12-16T02:53:44;31.10;;;12.35;;
75584;SDS011;64162;53.508;10.476;2022-12-16T02:59:07;28.00;;;12.30;;
75584;SDS011;64162;53.508;10.476;2022-12-16T03:04:37;36.28;;;14.27;;
75584;SDS011;64162;53.508;10.476;2022-12-16T03:07:06;32.20;;;13.13;;
75584;SDS011;64162;53.508;10.476;2022-12-16T03:09:37;29.77;;;14.15;;
75584;SDS011;64162;53.508;10.476;2022-12-16T03:12:08;37.80;;;13.85;;
75584;SDS011;64162;53.508;10.476;2022-12-16T03:14:37;29.40;;;11.98;;
75584;SDS011;64162;53.508;10.476;2022-12-16T03:17:07;36.70;;;13.85;;
75584;SDS011;64162;53.508;10.476;2022-12-16T03:19:35;30.55;;;14.80;;
75584;SDS011;64162;53.508;10.476;2022-12-16T03:22:13;42.33;;;16.83;;
75584;SDS011;64162;53.508;10.476;2022-12-16T03:24:45;33.47;;;15.52;;
75584;SDS011;64162;53.508;10.476;2022-12-16T03:30:37;38.97;;;14.10;;
75584;SDS011;64162;53.508;10.476;2022-12-16T03:33:15;33.90;;;13.52;;
75584;SDS011;64162;53.508;10.476;2022-12-16T03:35:50;27.20;;;10.85;;
75584;SDS011;64162;53.508;10.476;2022-12-16T03:38:22;36.45;;;14.73;;
75584;SDS011;64162;53.508;10.476;2022-12-16T03:40:49;43.30;;;14.90;;
75584;SDS011;64162;53.508;10.476;2022-12-16T03:43:17;36.22;;;13.00;;
75584;SDS011;64162;53.508;10.476;2022-12-16T03:45:44;35.05;;;14.00;;
75584;SDS011;64162;53.508;10.476;2022-12-16T03:48:17;27.05;;;12.32;;
75584;SDS011;64162;53.508;10.476;2022-12-16T03:50:48;43.63;;;16.33;;
75584;SDS011;64162;53.508;10.476;2022-12-16T03:53:15;39.38;;;15.18;;
75584;SDS011;64162;53.508;10.476;2022-12-16T03:55:41;36.70;;;15.02;;
75584;SDS011;64162;53.508;10.476;2022-12-16T03:58:08;38.38;;;14.25;;
75584;SDS011;64162;53.508;10.476;2022-12-16T04:00:35;17.02;;;5.28;;
75584;SDS011;64162;53.508;10.476;2022-12-16T04:03:02;44.47;;;14.70;;
75584;SDS011;64162;53.508;10.476;2022-12-16T04:05:28;51.58;;;17.55;;
75584;SDS011;64162;53.508;10.476;2022-12-16T04:07:55;45.50;;;14.55;;
75584;SDS011;64162;53.508;10.476;2022-12-16T04:10:25;38.75;;;14.20;;
75584;SDS011;64162;53.508;10.476;2022-12-16T04:13:10;36.13;;;13.15;;
75584;SDS011;64162;53.508;10.476;2022-12-16T04:15:56;37.50;;;13.57;;
75584;SDS011;64162;53.508;10.476;2022-12-16T04:18:41;35.47;;;11.73;;
75584;SDS011;64162;53.508;10.476;2022-12-16T04:21:26;43.28;;;15.25;;
75584;SDS011;64162;53.508;10.476;2022-12-16T04:24:12;33.50;;;12.40;;
75584;SDS011;64162;53.508;10.476;2022-12-16T04:26:45;31.95;;;12.52;;
75584;SDS011;64162;53.508;10.476;2022-12-16T04:29:33;42.70;;;13.23;;
75584;SDS011;64162;53.508;10.476;2022-12-16T04:32:20;45.72;;;14.57;;
75584;SDS011;64162;53.508;10.476;2022-12-16T04:34:47;41.83;;;15.57;;
75584;SDS011;64162;53.508;10.476;2022-12-16T04:37:14;49.13;;;12.80;;
75584;SDS011;64162;53.508;10.476;2022-12-16T04:39:59;47.55;;;12.43;;
75584;SDS011;64162;53.508;10.476;2022-12-16T04:42:44;43.03;;;13.27;;
75584;SDS011;64162;53.508;10.476;2022-12-16T04:45:29;42.00;;;14.13;;
75584;SDS011;64162;53.508;10.476;2022-12-16T04:48:14;41.78;;;14.95;;
75584;SDS011;64162;53.508;10.476;2022-12-16T04:50:59;49.78;;;14.48;;
75584;SDS011;64162;53.508;10.476;2022-12-16T04:53:44;47.20;;;14.85;;
75584;SDS011;64162;53.508;10.476;2022-12-16T04:56:30;34.40;;;12.80;;
75584;SDS011;64162;53.508;10.476;2022-12-16T04:59:15;46.22;;;14.43;;
75584;SDS011;64162;53.508;10.476;2022-12-16T05:02:00;48.90;;;14.80;;
75584;SDS011;64162;53.508;10.476;2022-12-16T05:04:46;39.00;;;13.77;;
75584;SDS011;64162;53.508;10.476;2022-12-16T05:07:31;35.13;;;12.63;;
75584;SDS011;64162;53.508;10.476;2022-12-16T05:10:16;48.72;;;14.57;;
75584;SDS011;64162;53.508;10.476;2022-12-16T05:13:01;42.63;;;14.23;;
75584;SDS011;64162;53.508;10.476;2022-12-16T05:15:47;41.42;;;13.00;;
75584;SDS011;64162;53.508;10.476;2022-12-16T05:18:52;38.58;;;12.40;;
75584;SDS011;64162;53.508;10.476;2022-12-16T05:21:37;39.40;;;11.55;;
75584;SDS011;64162;53.508;10.476;2022-12-16T05:24:22;33.08;;;11.32;;
75584;SDS011;64162;53.508;10.476;2022-12-16T05:27:08;51.88;;;13.10;;
75584;SDS011;64162;53.508;10.476;2022-12-16T05:29:53;45.25;;;15.15;;
75584;SDS011;64162;53.508;10.476;2022-12-16T05:32:38;36.85;;;14.45;;
75584;SDS011;64162;53.508;10.476;2022-12-16T05:35:23;39.30;;;13.38;;
75584;SDS011;64162;53.508;10.476;2022-12-16T05:38:08;25.27;;;8.90;;
75584;SDS011;64162;53.508;10.476;2022-12-16T05:40:53;32.92;;;13.25;;
75584;SDS011;64162;53.508;10.476;2022-12-16T05:43:52;40.95;;;13.82;;
75584;SDS011;64162;53.508;10.476;2022-12-16T05:46:37;50.47;;;14.77;;
75584;SDS011;64162;53.508;10.476;2022-12-16T05:49:22;44.30;;;15.50;;
75584;SDS011;64162;53.508;10.476;2022-12-16T05:52:08;36.08;;;10.82;;
75584;SDS011;64162;53.508;10.476;2022-12-16T05:54:53;40.88;;;15.73;;
75584;SDS011;64162;53.508;10.476;2022-12-16T05:57:38;54.55;;;17.83;;
75584;SDS011;64162;53.508;10.476;2022-12-16T06:00:24;57.30;;;18.17;;
75584;SDS011;64162;53.508;10.476;2022-12-16T06:03:09;52.63;;;16.38;;
75584;SDS011;64162;53.508;10.476;2022-12-16T06:05:54;54.17;;;17.33;;
75584;SDS011;64162;53.508;10.476;2022-12-16T06:08:39;54.33;;;18.38;;
75584;SDS011;64162;53.508;10.476;2022-12-16T06:11:24;44.63;;;15.80;;
75584;SDS011;64162;53.508;10.476;2022-12-16T06:14:09;53.63;;;17.67;;
75584;SDS011;64162;53.508;10.476;2022-12-16T06:16:55;66.35;;;19.08;;
75584;SDS011;64162;53.508;10.476;2022-12-16T06:19:55;52.90;;;16.90;;
75584;SDS011;64162;53.508;10.476;2022-12-16T06:22:40;60.20;;;20.13;;
75584;SDS011;64162;53.508;10.476;2022-12-16T06:25:26;57.10;;;17.98;;
75584;SDS011;64162;53.508;10.476;2022-12-16T06:28:14;52.20;;;16.23;;
75584;SDS011;64162;53.508;10.476;2022-12-16T06:30:59;59.10;;;18.75;;
75584;SDS011;64162;53.508;10.476;2022-12-16T06:33:45;53.17;;;16.63;;
75584;SDS011;64162;53.508;10.476;2022-12-16T06:36:30;60.95;;;20.13;;
75584;SDS011;64162;53.508;10.476;2022-12-16T06:39:15;59.38;;;15.30;;
75584;SDS011;64162;53.508;10.476;2022-12-16T06:42:01;50.13;;;14.25;;
75584;SDS011;64162;53.508;10.476;2022-12-16T06:44:47;37.33;;;12.68;;
75584;SDS011;64162;53.508;10.476;2022-12-16T06:47:32;27.40;;;8.57;;
75584;SDS011;64162;53.508;10.476;2022-12-16T06:50:17;48.35;;;15.40;;
75584;SDS011;64162;53.508;10.476;2022-12-16T06:53:04;39.63;;;14.07;;
75584;SDS011;64162;53.508;10.476;2022-12-16T06:55:50;48.88;;;14.63;;
75584;SDS011;64162;53.508;10.476;2022-12-16T06:58:35;42.63;;;13.57;;
75584;SDS011;64162;53.508;10.476;2022-12-16T07:01:20;50.35;;;14.20;;
75584;SDS011;64162;53.508;10.476;2022-12-16T07:04:06;40.25;;;12.38;;
75584;SDS011;64162;53.508;10.476;2022-12-16T07:06:51;48.35;;;14.93;;
75584;SDS011;64162;53.508;10.476;2022-12-16T07:09:36;37.53;;;13.50;;
75584;SDS011;64162;53.508;10.476;2022-12-16T07:12:21;36.92;;;12.80;;
75584;SDS011;64162;53.508;10.476;2022-12-16T07:15:06;54.75;;;14.82;;
75584;SDS011;64162;53.508;10.476;2022-12-16T07:17:52;43.05;;;15.23;;
75584;SDS011;64162;53.508;10.476;2022-12-16T07:20:37;38.50;;;13.90;;
75584;SDS011;64162;53.508;10.476;2022-12-16T07:23:23;41.00;;;13.75;;
75584;SDS011;64162;53.508;10.476;2022-12-16T07:26:08;53.72;;;16.08;;
75584;SDS011;64162;53.508;10.476;2022-12-16T07:28:53;40.30;;;16.13;;
75584;SDS011;64162;53.508;10.476;2022-12-16T07:31:38;67.35;;;17.35;;
75584;SDS011;64162;53.508;10.476;2022-12-16T07:34:24;60.70;;;19.08;;
75584;SDS011;64162;53.508;10.476;2022-12-16T07:37:12;81.32;;;22.92;;
75584;SDS011;64162;53.508;10.476;2022-12-16T07:39:58;72.28;;;18.48;;
75584;SDS011;64162;53.508;10.476;2022-12-16T07:42:46;87.97;;;25.60;;
75584;SDS011;64162;53.508;10.476;2022-12-16T07:45:31;85.60;;;24.58;;
75584;SDS011;64162;53.508;10.476;2022-12-16T07:48:17;89.57;;;23.95;;
75584;SDS011;64162;53.508;10.476;2022-12-16T07:51:02;82.00;;;24.48;;
75584;SDS011;64162;53.508;10.476;2022-12-16T07:53:47;99.72;;;26.27;;
75584;SDS011;64162;53.508;10.476;2022-12-16T07:56:32;89.80;;;24.92;;
75584;SDS011;64162;53.508;10.476;2022-12-16T07:59:17;85.57;;;24.83;;
75584;SDS011;64162;53.508;10.476;2022-12-16T08:02:03;95.60;;;24.95;;
75584;SDS011;64162;53.508;10.476;2022-12-16T08:04:48;78.30;;;25.10;;
75584;SDS011;64162;53.508;10.476;2022-12-16T08:11:48;75.55;;;21.02;;
75584;SDS011;64162;53.508;10.476;2022-12-16T08:14:36;72.20;;;22.48;;
75584;SDS011;64162;53.508;10.476;2022-12-16T08:17:21;73.10;;;21.90;;
75584;SDS011;64162;53.508;10.476;2022-12-16T08:20:07;71.45;;;22.90;;
75584;SDS011;64162;53.508;10.476;2022-12-16T08:22:53;59.17;;;20.13;;
75584;SDS011;64162;53.508;10.476;2022-12-16T08:25:38;58.70;;;20.27;;
75584;SDS011;64162;53.508;10.476;2022-12-16T08:28:23;66.68;;;20.58;;
75584;SDS011;64162;53.508;10.476;2022-12-16T08:31:08;66.32;;;23.65;;
75584;SDS011;64162;53.508;10.476;2022-12-16T08:33:56;56.13;;;23.13;;
75584;SDS011;64162;53.508;10.476;2022-12-16T08:36:44;42.60;;;16.60;;
75584;SDS011;64162;53.508;10.476;2022-12-16T08:39:30;52.67;;;16.83;;
75584;SDS011;64162;53.508;10.476;2022-12-16T08:42:24;37.33;;;15.35;;
75584;SDS011;64162;53.508;10.476;2022-12-16T08:45:09;40.05;;;16.30;;
75584;SDS011;64162;53.508;10.476;2022-12-16T08:47:55;42.35;;;17.73;;
75584;SDS011;64162;53.508;10.476;2022-12-16T08:50:40;40.00;;;16.02;;
75584;SDS011;64162;53.508;10.476;2022-12-16T08:53:25;49.38;;;20.55;;
75584;SDS011;64162;53.508;10.476;2022-12-16T08:56:14;36.70;;;15.13;;
75584;SDS011;64162;53.508;10.476;2022-12-16T08:59:00;45.60;;;16.30;;
75584;SDS011;64162;53.508;10.476;2022-12-16T09:01:45;40.17;;;15.35;;
75584;SDS011;64162;53.508;10.476;2022-12-16T09:04:31;38.30;;;17.00;;
75584;SDS011;64162;53.508;10.476;2022-12-16T09:07:16;37.47;;;18.17;;
75584;SDS011;64162;53.508;10.476;2022-12-16T09:10:06;57.72;;;21.50;;
75584;SDS011;64162;53.508;10.476;2022-12-16T09:12:51;42.60;;;18.20;;
75584;SDS011;64162;53.508;10.476;2022-12-16T09:15:39;60.67;;;22.02;;
75584;SDS011;64162;53.508;10.476;2022-12-16T09:18:45;40.30;;;16.65;;
75584;SDS011;64162;53.508;10.476;2022-12-16T09:21:30;43.92;;;21.88;;
75584;SDS011;64162;53.508;10.476;2022-12-16T09:24:16;38.22;;;15.60;;
75584;SDS011;64162;53.508;10.476;2022-12-16T09:27:01;47.03;;;20.85;;
75584;SDS011;64162;53.508;10.476;2022-12-16T09:29:46;39.45;;;18.08;;
75584;SDS011;64162;53.508;10.476;2022-12-16T09:32:32;43.53;;;18.08;;
75584;SDS011;64162;53.508;10.476;2022-12-16T09:35:17;50.88;;;19.67;;
75584;SDS011;64162;53.508;10.476;2022-12-16T09:38:02;50.35;;;19.90;;
75584;SDS011;64162;53.508;10.476;2022-12-16T09:40:47;53.08;;;21.52;;
75584;SDS011;64162;53.508;10.476;2022-12-16T09:50:08;57.47;;;21.27;;
75584;SDS011;64162;53.508;10.476;2022-12-16T09:53:03;44.53;;;18.95;;
75584;SDS011;64162;53.508;10.476;2022-12-16T09:55:54;55.15;;;19.67;;
75584;SDS011;64162;53.508;10.476;2022-12-16T09:58:42;41.58;;;16.42;;
75584;SDS011;64162;53.508;10.476;2022-12-16T10:01:33;42.33;;;17.42;;
75584;SDS011;64162;53.508;10.476;2022-12-16T10:04:22;51.65;;;20.23;;
75584;SDS011;64162;53.508;10.476;2022-12-16T10:07:15;32.70;;;13.55;;
75584;SDS011;64162;53.508;10.476;2022-12-16T10:13:25;35.17;;;16.33;;
75584;SDS011;64162;53.508;10.476;2022-12-16T10:22:39;38.80;;;15.43;;
75584;SDS011;64162;53.508;10.476;2022-12-16T10:25:39;33.95;;;15.43;;
75584;SDS011;64162;53.508;10.476;2022-12-16T10:31:31;35.60;;;14.20;;
75584;SDS011;64162;53.508;10.476;2022-12-16T10:34:18;39.47;;;15.60;;
75584;SDS011;64162;53.508;10.476;2022-12-16T10:37:29;35.88;;;15.02;;
75584;SDS011;64162;53.508;10.476;2022-12-16T10:40:18;34.30;;;15.40;;
75584;SDS011;64162;53.508;10.476;2022-12-16T10:43:22;34.42;;;14.57;;
75584;SDS011;64162;53.508;10.476;2022-12-16T10:46:19;44.90;;;19.10;;
75584;SDS011;64162;53.508;10.476;2022-12-16T10:49:12;37.38;;;16.15;;
75584;SDS011;64162;53.508;10.476;2022-12-16T10:52:02;36.72;;;13.10;;
75584;SDS011;64162;53.508;10.476;2022-12-16T11:01:26;31.10;;;12.27;;
75584;SDS011;64162;53.508;10.476;2022-12-16T11:04:28;31.00;;;12.90;;
75584;SDS011;64162;53.508;10.476;2022-12-16T11:07:27;30.48;;;14.52;;
75584;SDS011;64162;53.508;10.476;2022-12-16T11:13:32;33.35;;;13.98;;
75584;SDS011;64162;53.508;10.476;2022-12-16T11:16:25;28.23;;;12.40;;
75584;SDS011;64162;53.508;10.476;2022-12-16T11:19:22;30.25;;;14.45;;
75584;SDS011;64162;53.508;10.476;2022-12-16T11:22:19;34.35;;;13.70;;
75584;SDS011;64162;53.508;10.476;2022-12-16T11:25:15;27.60;;;13.30;;
75584;SDS011;64162;53.508;10.476;2022-12-16T11:30:58;31.58;;;14.68;;
75584;SDS011;64162;53.508;10.476;2022-12-16T11:33:47;29.75;;;13.88;;
75584;SDS011;64162;53.508;10.476;2022-12-16T11:36:44;35.10;;;14.50;;
75584;SDS011;64162;53.508;10.476;2022-12-16T11:43:24;39.45;;;14.82;;
75584;SDS011;64162;53.508;10.476;2022-12-16T11:46:33;31.35;;;13.27;;
75584;SDS011;64162;53.508;10.476;2022-12-16T11:49:24;35.90;;;16.08;;
75584;SDS011;64162;53.508;10.476;2022-12-16T11:52:22;35.75;;;16.30;;
75584;SDS011;64162;53.508;10.476;2022-12-16T11:55:16;35.30;;;13.40;;
75584;SDS011;64162;53.508;10.476;2022-12-16T12:01:34;33.03;;;13.45;;
75584;SDS011;64162;53.508;10.476;2022-12-16T12:04:44;36.30;;;15.73;;
75584;SDS011;64162;53.508;10.476;2022-12-16T12:07:34;32.80;;;14.75;;
75584;SDS011;64162;53.508;10.476;2022-12-16T12:26:30;40.15;;;15.93;;
75584;SDS011;64162;53.508;10.476;2022-12-16T12:36:45;31.10;;;13.05;;
75584;SDS011;64162;53.508;10.476;2022-12-16T12:40:06;35.70;;;15.00;;
75584;SDS011;64162;53.508;10.476;2022-12-16T12:43:17;51.65;;;20.15;;
75584;SDS011;64162;53.508;10.476;2022-12-16T12:46:18;43.25;;;18.20;;
75584;SDS011;64162;53.508;10.476;2022-12-16T12:50:28;43.72;;;18.98;;
75584;SDS011;64162;53.508;10.476;2022-12-16T12:53:43;40.00;;;17.80;;
75584;SDS011;64162;53.508;10.476;2022-12-16T12:57:03;42.25;;;20.08;;
75584;SDS011;64162;53.508;10.476;2022-12-16T12:59:55;53.25;;;19.33;;
75584;SDS011;64162;53.508;10.476;2022-12-16T13:06:40;37.85;;;16.88;;
75584;SDS011;64162;53.508;10.476;2022-12-16T13:15:59;47.65;;;22.42;;
75584;SDS011;64162;53.508;10.476;2022-12-16T13:19:02;41.42;;;18.08;;
75584;SDS011;64162;53.508;10.476;2022-12-16T13:32:17;39.78;;;17.20;;
75584;SDS011;64162;53.508;10.476;2022-12-16T14:33:21;37.72;;;15.93;;
75584;SDS011;64162;53.508;10.476;2022-12-16T14:40:00;46.78;;;18.95;;
75584;SDS011;64162;53.508;10.476;2022-12-16T14:42:47;39.38;;;16.58;;
75584;SDS011;64162;53.508;10.476;2022-12-16T14:45:37;43.22;;;17.77;;
75584;SDS011;64162;53.508;10.476;2022-12-16T14:48:28;44.88;;;18.70;;
75584;SDS011;64162;53.508;10.476;2022-12-16T14:51:29;43.13;;;19.00;;
75584;SDS011;64162;53.508;10.476;2022-12-16T15:02:54;52.08;;;20.85;;
75584;SDS011;64162;53.508;10.476;2022-12-16T15:05:43;55.55;;;18.73;;
75584;SDS011;64162;53.508;10.476;2022-12-16T15:08:31;46.13;;;17.95;;
75584;SDS011;64162;53.508;10.476;2022-12-16T15:11:20;43.35;;;18.98;;
75584;SDS011;64162;53.508;10.476;2022-12-16T15:14:08;45.53;;;18.10;;
75584;SDS011;64162;53.508;10.476;2022-12-16T15:16:59;46.95;;;18.23;;
75584;SDS011;64162;53.508;10.476;2022-12-16T15:19:45;48.50;;;19.58;;
75584;SDS011;64162;53.508;10.476;2022-12-16T15:22:35;49.55;;;19.13;;
75584;SDS011;64162;53.508;10.476;2022-12-16T15:25:22;49.45;;;20.58;;
75584;SDS011;64162;53.508;10.476;2022-12-16T15:28:25;51.45;;;19.38;;
75584;SDS011;64162;53.508;10.476;2022-12-16T15:31:40;47.50;;;19.00;;
75584;SDS011;64162;53.508;10.476;2022-12-16T15:34:29;46.30;;;20.17;;
75584;SDS011;64162;53.508;10.476;2022-12-16T15:37:22;53.17;;;19.45;;
75584;SDS011;64162;53.508;10.476;2022-12-16T15:43:23;43.17;;;16.77;;
75584;SDS011;64162;53.508;10.476;2022-12-16T15:55:32;50.05;;;20.25;;
75584;SDS011;64162;53.508;10.476;2022-12-16T16:01:14;47.55;;;20.10;;
75584;SDS011;64162;53.508;10.476;2022-12-16T16:04:01;50.78;;;20.52;;
75584;SDS011;64162;53.508;10.476;2022-12-16T16:06:47;46.88;;;20.83;;
75584;SDS011;64162;53.508;10.476;2022-12-16T16:09:34;47.42;;;19.33;;
75584;SDS011;64162;53.508;10.476;2022-12-16T16:12:22;47.40;;;20.40;;
75584;SDS011;64162;53.508;10.476;2022-12-16T16:17:58;58.85;;;21.25;;
75584;SDS011;64162;53.508;10.476;2022-12-16T16:20:47;54.28;;;20.25;;
75584;SDS011;64162;53.508;10.476;2022-12-16T16:23:32;59.35;;;20.08;;
75584;SDS011;64162;53.508;10.476;2022-12-16T16:26:34;56.28;;;20.88;;
75584;SDS011;64162;53.508;10.476;2022-12-16T16:29:19;50.63;;;21.50;;
75584;SDS011;64162;53.508;10.476;2022-12-16T16:32:04;52.83;;;21.40;;
75584;SDS011;64162;53.508;10.476;2022-12-16T16:34:49;47.33;;;20.48;;
75584;SDS011;64162;53.508;10.476;2022-12-16T16:37:34;50.78;;;18.65;;
75584;SDS011;64162;53.508;10.476;2022-12-16T16:40:38;61.38;;;22.27;;
75584;SDS011;64162;53.508;10.476;2022-12-16T16:43:26;53.20;;;22.63;;
75584;SDS011;64162;53.508;10.476;2022-12-16T16:46:34;55.08;;;21.85;;
75584;SDS011;64162;53.508;10.476;2022-12-16T16:52:13;58.50;;;20.48;;
75584;SDS011;64162;53.508;10.476;2022-12-16T16:55:00;63.63;;;23.20;;
75584;SDS011;64162;53.508;10.476;2022-12-16T16:57:45;50.63;;;21.23;;
75584;SDS011;64162;53.508;10.476;2022-12-16T17:00:31;57.90;;;21.95;;
75584;SDS011;64162;53.508;10.476;2022-12-16T17:03:17;56.35;;;22.73;;
75584;SDS011;64162;53.508;10.476;2022-12-16T17:06:02;53.88;;;19.80;;
75584;SDS011;64162;53.508;10.476;2022-12-16T17:08:47;55.95;;;20.95;;
75584;SDS011;64162;53.508;10.476;2022-12-16T17:11:32;57.58;;;22.30;;
75584;SDS011;64162;53.508;10.476;2022-12-16T17:14:19;61.45;;;23.00;;
75584;SDS011;64162;53.508;10.476;2022-12-16T17:17:05;59.97;;;21.85;;
75584;SDS011;64162;53.508;10.476;2022-12-16T17:19:50;60.75;;;22.67;;
75584;SDS011;64162;53.508;10.476;2022-12-16T17:22:35;53.55;;;21.35;;
75584;SDS011;64162;53.508;10.476;2022-12-16T17:25:20;55.22;;;22.70;;
75584;SDS011;64162;53.508;10.476;2022-12-16T17:28:06;61.38;;;22.55;;
75584;SDS011;64162;53.508;10.476;2022-12-16T17:30:51;46.38;;;20.83;;
75584;SDS011;64162;53.508;10.476;2022-12-16T17:33:36;61.42;;;23.55;;
75584;SDS011;64162;53.508;10.476;2022-12-16T17:36:22;54.50;;;22.27;;
75584;SDS011;64162;53.508;10.476;2022-12-16T17:39:07;60.78;;;22.40;;
75584;SDS011;64162;53.508;10.476;2022-12-16T17:41:54;58.67;;;22.30;;
75584;SDS011;64162;53.508;10.476;2022-12-16T17:44:59;51.63;;;20.60;;
75584;SDS011;64162;53.508;10.476;2022-12-16T17:47:44;58.75;;;21.48;;
75584;SDS011;64162;53.508;10.476;2022-12-16T17:50:30;56.00;;;21.88;;
75584;SDS011;64162;53.508;10.476;2022-12-16T17:53:17;67.60;;;23.98;;
75584;SDS011;64162;53.508;10.476;2022-12-16T17:56:03;55.80;;;20.63;;
75584;SDS011;64162;53.508;10.476;2022-12-16T17:58:49;54.08;;;21.40;;
75584;SDS011;64162;53.508;10.476;2022-12-16T18:01:36;57.88;;;22.50;;
75584;SDS011;64162;53.508;10.476;2022-12-16T18:04:21;61.28;;;23.42;;
75584;SDS011;64162;53.508;10.476;2022-12-16T18:07:06;58.25;;;24.17;;
75584;SDS011;64162;53.508;10.476;2022-12-16T18:09:51;56.22;;;23.38;;
75584;SDS011;64162;53.508;10.476;2022-12-16T18:12:36;58.72;;;23.95;;
75584;SDS011;64162;53.508;10.476;2022-12-16T18:15:21;64.20;;;24.23;;
75584;SDS011;64162;53.508;10.476;2022-12-16T18:18:06;63.08;;;25.67;;
75584;SDS011;64162;53.508;10.476;2022-12-16T18:20:51;59.80;;;24.48;;
75584;SDS011;64162;53.508;10.476;2022-12-16T18:23:36;63.15;;;25.05;;
75584;SDS011;64162;53.508;10.476;2022-12-16T18:26:21;67.70;;;27.63;;
75584;SDS011;64162;53.508;10.476;2022-12-16T18:29:06;65.57;;;25.50;;
75584;SDS011;64162;53.508;10.476;2022-12-16T18:31:52;65.13;;;26.75;;
75584;SDS011;64162;53.508;10.476;2022-12-16T18:34:41;70.32;;;27.63;;
75584;SDS011;64162;53.508;10.476;2022-12-16T18:37:26;76.13;;;27.23;;
75584;SDS011;64162;53.508;10.476;2022-12-16T18:40:11;68.55;;;28.27;;
75584;SDS011;64162;53.508;10.476;2022-12-16T18:42:56;71.55;;;27.83;;
75584;SDS011;64162;53.508;10.476;2022-12-16T18:45:42;69.50;;;28.13;;
75584;SDS011;64162;53.508;10.476;2022-12-16T18:48:28;63.13;;;27.58;;
75584;SDS011;64162;53.508;10.476;2022-12-16T18:51:14;87.78;;;33.53;;
75584;SDS011;64162;53.508;10.476;2022-12-16T18:53:59;74.20;;;30.77;;
75584;SDS011;64162;53.508;10.476;2022-12-16T18:56:44;77.32;;;30.58;;
75584;SDS011;64162;53.508;10.476;2022-12-16T18:59:29;70.03;;;27.88;;
75584;SDS011;64162;53.508;10.476;2022-12-16T19:02:14;69.90;;;28.30;;
75584;SDS011;64162;53.508;10.476;2022-12-16T19:04:59;69.72;;;27.98;;
75584;SDS011;64162;53.508;10.476;2022-12-16T19:07:44;65.88;;;28.05;;
75584;SDS011;64162;53.508;10.476;2022-12-16T19:10:30;67.25;;;29.15;;
75584;SDS011;64162;53.508;10.476;2022-12-16T19:13:15;63.22;;;27.08;;
75584;SDS011;64162;53.508;10.476;2022-12-16T19:16:00;82.90;;;34.83;;
75584;SDS011;64162;53.508;10.476;2022-12-16T19:18:49;80.95;;;36.03;;
75584;SDS011;64162;53.508;10.476;2022-12-16T19:21:40;74.45;;;30.90;;